sensor_id;sensor_type;location;lat;lon;timestamp;P1;durP1;ratioP1;P2;durP2;ratioP2
8171;SDS011;4127;47.908;10.850;2022-10-31T00:01:18;6.17;;;2.60;;
8171;SDS011;4127;47.908;10.850;2022-10-31T00:03:53;4.73;;;3.10;;
8171;SDS011;4127;47.908;10.850;2022-10-31T00:06:20;4.27;;;2.87;;
8171;SDS011;4127;47.908;10.850;2022-10-31T00:08:51;4.50;;;3.00;;
8171;SDS011;4127;47.908;10.850;2022-10-31T00:11:20;2.90;;;2.50;;
8171;SDS011;4127;47.908;10.850;2022-10-31T00:13:47;6.07;;;2.70;;
8171;SDS011;4127;47.908;10.850;2022-10-31T00:16:17;5.00;;;2.67;;
8171;SDS011;4127;47.908;10.850;2022-10-31T00:18:50;4.97;;;2.70;;
8171;SDS011;4127;47.908;10.850;2022-10-31T00:21:17;4.73;;;2.73;;
8171;SDS011;4127;47.908;10.850;2022-10-31T00:23:45;4.73;;;3.07;;
8171;SDS011;4127;47.908;10.850;2022-10-31T00:26:12;4.27;;;2.50;;
8171;SDS011;4127;47.908;10.850;2022-10-31T00:28:39;5.90;;;3.03;;
8171;SDS011;4127;47.908;10.850;2022-10-31T00:31:07;3.90;;;2.87;;
8171;SDS011;4127;47.908;10.850;2022-10-31T00:33:35;4.50;;;3.00;;
8171;SDS011;4127;47.908;10.850;2022-10-31T00:36:04;5.70;;;3.00;;
8171;SDS011;4127;47.908;10.850;2022-10-31T00:38:32;4.53;;;2.80;;
8171;SDS011;4127;47.908;10.850;2022-10-31T00:40:59;6.17;;;2.80;;
8171;SDS011;4127;47.908;10.850;2022-10-31T00:43:26;4.13;;;3.03;;
8171;SDS011;4127;47.908;10.850;2022-10-31T00:45:52;3.67;;;2.80;;
8171;SDS011;4127;47.908;10.850;2022-10-31T00:48:19;6.10;;;2.97;;
8171;SDS011;4127;47.908;10.850;2022-10-31T00:50:46;3.97;;;3.07;;
8171;SDS011;4127;47.908;10.850;2022-10-31T00:53:12;3.80;;;2.90;;
8171;SDS011;4127;47.908;10.850;2022-10-31T00:55:39;5.60;;;2.93;;
8171;SDS011;4127;47.908;10.850;2022-10-31T00:58:06;5.63;;;2.53;;
8171;SDS011;4127;47.908;10.850;2022-10-31T01:00:33;4.40;;;2.80;;
8171;SDS011;4127;47.908;10.850;2022-10-31T01:02:59;5.60;;;2.83;;
8171;SDS011;4127;47.908;10.850;2022-10-31T01:05:27;4.30;;;2.63;;
8171;SDS011;4127;47.908;10.850;2022-10-31T01:07:53;4.53;;;2.67;;
8171;SDS011;4127;47.908;10.850;2022-10-31T01:10:20;5.50;;;2.90;;
8171;SDS011;4127;47.908;10.850;2022-10-31T01:12:47;3.70;;;2.67;;
8171;SDS011;4127;47.908;10.850;2022-10-31T01:15:17;7.47;;;3.50;;
8171;SDS011;4127;47.908;10.850;2022-10-31T01:17:46;5.27;;;3.13;;
8171;SDS011;4127;47.908;10.850;2022-10-31T01:20:14;5.60;;;3.03;;
8171;SDS011;4127;47.908;10.850;2022-10-31T01:22:42;5.27;;;2.63;;
8171;SDS011;4127;47.908;10.850;2022-10-31T01:25:09;7.07;;;2.93;;
8171;SDS011;4127;47.908;10.850;2022-10-31T01:27:36;7.47;;;3.20;;
8171;SDS011;4127;47.908;10.850;2022-10-31T01:30:03;4.20;;;2.90;;
8171;SDS011;4127;47.908;10.850;2022-10-31T01:32:31;5.20;;;3.33;;
8171;SDS011;4127;47.908;10.850;2022-10-31T01:34:58;6.67;;;3.47;;
8171;SDS011;4127;47.908;10.850;2022-10-31T01:37:25;6.67;;;3.10;;
8171;SDS011;4127;47.908;10.850;2022-10-31T01:39:52;5.17;;;2.87;;
8171;SDS011;4127;47.908;10.850;2022-10-31T01:42:19;4.57;;;3.13;;
8171;SDS011;4127;47.908;10.850;2022-10-31T01:44:52;5.60;;;3.30;;
8171;SDS011;4127;47.908;10.850;2022-10-31T01:47:31;7.47;;;3.83;;
8171;SDS011;4127;47.908;10.850;2022-10-31T01:50:02;5.60;;;2.97;;
8171;SDS011;4127;47.908;10.850;2022-10-31T01:52:41;6.20;;;3.20;;
8171;SDS011;4127;47.908;10.850;2022-10-31T01:55:13;5.97;;;3.27;;
8171;SDS011;4127;47.908;10.850;2022-10-31T01:57:50;5.40;;;2.80;;
8171;SDS011;4127;47.908;10.850;2022-10-31T02:00:20;6.53;;;3.33;;
8171;SDS011;4127;47.908;10.850;2022-10-31T02:02:48;6.33;;;3.43;;
8171;SDS011;4127;47.908;10.850;2022-10-31T02:05:17;6.03;;;3.60;;
8171;SDS011;4127;47.908;10.850;2022-10-31T02:08:04;4.43;;;3.07;;
8171;SDS011;4127;47.908;10.850;2022-10-31T02:10:50;7.90;;;3.47;;
8171;SDS011;4127;47.908;10.850;2022-10-31T02:13:18;6.80;;;2.83;;
8171;SDS011;4127;47.908;10.850;2022-10-31T02:15:47;5.43;;;2.93;;
8171;SDS011;4127;47.908;10.850;2022-10-31T02:18:19;5.83;;;3.23;;
8171;SDS011;4127;47.908;10.850;2022-10-31T02:26:31;7.20;;;3.57;;
8171;SDS011;4127;47.908;10.850;2022-10-31T02:29:35;4.80;;;3.40;;
8171;SDS011;4127;47.908;10.850;2022-10-31T02:34:44;4.67;;;3.10;;
8171;SDS011;4127;47.908;10.850;2022-10-31T02:40:22;5.37;;;3.53;;
8171;SDS011;4127;47.908;10.850;2022-10-31T02:45:47;6.80;;;3.43;;
8171;SDS011;4127;47.908;10.850;2022-10-31T02:48:23;3.90;;;3.20;;
8171;SDS011;4127;47.908;10.850;2022-10-31T02:50:55;4.20;;;2.73;;
8171;SDS011;4127;47.908;10.850;2022-10-31T02:53:24;4.43;;;2.90;;
8171;SDS011;4127;47.908;10.850;2022-10-31T02:55:54;5.47;;;3.07;;
8171;SDS011;4127;47.908;10.850;2022-10-31T02:58:29;2.97;;;2.50;;
8171;SDS011;4127;47.908;10.850;2022-10-31T03:06:33;3.63;;;2.40;;
8171;SDS011;4127;47.908;10.850;2022-10-31T03:09:24;3.70;;;3.03;;
8171;SDS011;4127;47.908;10.850;2022-10-31T03:12:10;4.93;;;2.90;;
8171;SDS011;4127;47.908;10.850;2022-10-31T03:15:09;3.63;;;3.17;;
8171;SDS011;4127;47.908;10.850;2022-10-31T03:17:37;5.77;;;3.07;;
8171;SDS011;4127;47.908;10.850;2022-10-31T03:20:22;5.90;;;3.30;;
8171;SDS011;4127;47.908;10.850;2022-10-31T03:22:54;5.80;;;2.97;;
8171;SDS011;4127;47.908;10.850;2022-10-31T03:25:22;4.50;;;2.93;;
8171;SDS011;4127;47.908;10.850;2022-10-31T03:27:49;5.30;;;2.90;;
8171;SDS011;4127;47.908;10.850;2022-10-31T03:30:18;5.33;;;3.27;;
8171;SDS011;4127;47.908;10.850;2022-10-31T03:32:50;7.73;;;3.57;;
8171;SDS011;4127;47.908;10.850;2022-10-31T03:35:20;6.27;;;3.37;;
8171;SDS011;4127;47.908;10.850;2022-10-31T03:37:50;4.47;;;3.17;;
8171;SDS011;4127;47.908;10.850;2022-10-31T03:40:20;4.97;;;3.07;;
8171;SDS011;4127;47.908;10.850;2022-10-31T03:42:53;6.70;;;2.80;;
8171;SDS011;4127;47.908;10.850;2022-10-31T03:45:25;6.43;;;3.10;;
8171;SDS011;4127;47.908;10.850;2022-10-31T03:47:56;5.23;;;2.80;;
8171;SDS011;4127;47.908;10.850;2022-10-31T03:50:26;4.87;;;3.23;;
8171;SDS011;4127;47.908;10.850;2022-10-31T03:53:02;9.13;;;3.57;;
8171;SDS011;4127;47.908;10.850;2022-10-31T03:55:41;5.90;;;3.00;;
8171;SDS011;4127;47.908;10.850;2022-10-31T03:58:19;4.70;;;2.90;;
8171;SDS011;4127;47.908;10.850;2022-10-31T04:00:50;5.60;;;3.40;;
8171;SDS011;4127;47.908;10.850;2022-10-31T04:03:27;3.87;;;2.70;;
8171;SDS011;4127;47.908;10.850;2022-10-31T04:05:58;6.40;;;3.10;;
8171;SDS011;4127;47.908;10.850;2022-10-31T04:08:29;4.13;;;3.00;;
8171;SDS011;4127;47.908;10.850;2022-10-31T04:10:59;6.03;;;3.40;;
8171;SDS011;4127;47.908;10.850;2022-10-31T04:13:29;3.83;;;2.97;;
8171;SDS011;4127;47.908;10.850;2022-10-31T04:15:57;3.83;;;2.90;;
8171;SDS011;4127;47.908;10.850;2022-10-31T04:18:24;6.17;;;3.37;;
8171;SDS011;4127;47.908;10.850;2022-10-31T04:21:26;7.47;;;3.60;;
8171;SDS011;4127;47.908;10.850;2022-10-31T04:23:45;6.27;;;3.20;;
8171;SDS011;4127;47.908;10.850;2022-10-31T04:26:12;3.80;;;2.50;;
8171;SDS011;4127;47.908;10.850;2022-10-31T04:28:39;4.80;;;3.17;;
8171;SDS011;4127;47.908;10.850;2022-10-31T04:31:06;4.83;;;3.10;;
8171;SDS011;4127;47.908;10.850;2022-10-31T04:33:34;5.47;;;2.93;;
8171;SDS011;4127;47.908;10.850;2022-10-31T04:36:01;4.37;;;3.00;;
8171;SDS011;4127;47.908;10.850;2022-10-31T04:38:28;5.50;;;3.33;;
8171;SDS011;4127;47.908;10.850;2022-10-31T04:40:55;4.53;;;2.80;;
8171;SDS011;4127;47.908;10.850;2022-10-31T04:43:22;7.47;;;3.13;;
8171;SDS011;4127;47.908;10.850;2022-10-31T04:45:49;4.83;;;2.90;;
8171;SDS011;4127;47.908;10.850;2022-10-31T04:48:15;5.43;;;3.10;;
8171;SDS011;4127;47.908;10.850;2022-10-31T04:50:42;6.00;;;3.73;;
8171;SDS011;4127;47.908;10.850;2022-10-31T04:53:09;4.33;;;3.03;;
8171;SDS011;4127;47.908;10.850;2022-10-31T04:55:36;6.33;;;3.50;;
8171;SDS011;4127;47.908;10.850;2022-10-31T04:58:03;3.27;;;2.97;;
8171;SDS011;4127;47.908;10.850;2022-10-31T05:00:30;5.70;;;3.13;;
8171;SDS011;4127;47.908;10.850;2022-10-31T05:02:57;6.07;;;2.77;;
8171;SDS011;4127;47.908;10.850;2022-10-31T05:05:26;3.77;;;3.03;;
8171;SDS011;4127;47.908;10.850;2022-10-31T05:07:54;4.53;;;2.83;;
8171;SDS011;4127;47.908;10.850;2022-10-31T05:10:23;6.37;;;3.53;;
8171;SDS011;4127;47.908;10.850;2022-10-31T05:12:55;7.07;;;3.53;;
8171;SDS011;4127;47.908;10.850;2022-10-31T05:15:25;6.60;;;3.60;;
8171;SDS011;4127;47.908;10.850;2022-10-31T05:17:53;6.60;;;3.60;;
8171;SDS011;4127;47.908;10.850;2022-10-31T05:20:21;5.27;;;3.57;;
8171;SDS011;4127;47.908;10.850;2022-10-31T05:22:50;6.10;;;3.67;;
8171;SDS011;4127;47.908;10.850;2022-10-31T05:25:19;8.30;;;4.27;;
8171;SDS011;4127;47.908;10.850;2022-10-31T05:27:48;6.33;;;3.67;;
8171;SDS011;4127;47.908;10.850;2022-10-31T05:30:20;4.57;;;2.93;;
8171;SDS011;4127;47.908;10.850;2022-10-31T05:32:49;6.30;;;3.40;;
8171;SDS011;4127;47.908;10.850;2022-10-31T05:35:35;7.43;;;3.23;;
8171;SDS011;4127;47.908;10.850;2022-10-31T05:38:01;5.03;;;3.37;;
8171;SDS011;4127;47.908;10.850;2022-10-31T05:40:28;4.47;;;3.30;;
8171;SDS011;4127;47.908;10.850;2022-10-31T05:42:55;5.43;;;3.43;;
8171;SDS011;4127;47.908;10.850;2022-10-31T05:45:25;8.80;;;3.60;;
8171;SDS011;4127;47.908;10.850;2022-10-31T05:50:19;10.37;;;3.57;;
8171;SDS011;4127;47.908;10.850;2022-10-31T05:52:46;5.57;;;3.60;;
8171;SDS011;4127;47.908;10.850;2022-10-31T05:55:13;5.73;;;3.30;;
8171;SDS011;4127;47.908;10.850;2022-10-31T05:57:40;4.87;;;3.07;;
8171;SDS011;4127;47.908;10.850;2022-10-31T06:00:07;4.97;;;3.30;;
8171;SDS011;4127;47.908;10.850;2022-10-31T06:02:34;4.43;;;3.37;;
8171;SDS011;4127;47.908;10.850;2022-10-31T06:05:01;5.17;;;3.27;;
8171;SDS011;4127;47.908;10.850;2022-10-31T06:07:32;5.10;;;2.80;;
8171;SDS011;4127;47.908;10.850;2022-10-31T06:10:00;6.23;;;3.10;;
8171;SDS011;4127;47.908;10.850;2022-10-31T06:12:28;6.80;;;3.60;;
8171;SDS011;4127;47.908;10.850;2022-10-31T06:14:56;5.30;;;3.37;;
8171;SDS011;4127;47.908;10.850;2022-10-31T06:17:22;6.10;;;3.60;;
8171;SDS011;4127;47.908;10.850;2022-10-31T06:19:49;5.33;;;3.07;;
8171;SDS011;4127;47.908;10.850;2022-10-31T06:22:16;7.17;;;3.30;;
8171;SDS011;4127;47.908;10.850;2022-10-31T06:24:43;5.77;;;3.37;;
8171;SDS011;4127;47.908;10.850;2022-10-31T06:27:09;8.70;;;3.60;;
8171;SDS011;4127;47.908;10.850;2022-10-31T06:29:36;5.87;;;3.17;;
8171;SDS011;4127;47.908;10.850;2022-10-31T06:32:03;5.90;;;3.20;;
8171;SDS011;4127;47.908;10.850;2022-10-31T06:34:30;4.80;;;3.53;;
8171;SDS011;4127;47.908;10.850;2022-10-31T06:36:56;4.33;;;2.77;;
8171;SDS011;4127;47.908;10.850;2022-10-31T06:39:23;8.30;;;3.70;;
8171;SDS011;4127;47.908;10.850;2022-10-31T06:41:50;5.17;;;3.10;;
8171;SDS011;4127;47.908;10.850;2022-10-31T06:44:16;5.70;;;3.27;;
8171;SDS011;4127;47.908;10.850;2022-10-31T06:46:45;5.33;;;2.97;;
8171;SDS011;4127;47.908;10.850;2022-10-31T06:49:14;9.43;;;4.30;;
8171;SDS011;4127;47.908;10.850;2022-10-31T06:51:41;6.73;;;4.20;;
8171;SDS011;4127;47.908;10.850;2022-10-31T06:54:07;5.77;;;3.17;;
8171;SDS011;4127;47.908;10.850;2022-10-31T06:56:34;6.93;;;3.40;;
8171;SDS011;4127;47.908;10.850;2022-10-31T06:59:01;6.67;;;3.53;;
8171;SDS011;4127;47.908;10.850;2022-10-31T07:01:28;4.23;;;3.00;;
8171;SDS011;4127;47.908;10.850;2022-10-31T07:03:55;5.20;;;2.80;;
8171;SDS011;4127;47.908;10.850;2022-10-31T07:06:21;4.80;;;2.87;;
8171;SDS011;4127;47.908;10.850;2022-10-31T07:08:48;4.03;;;2.57;;
8171;SDS011;4127;47.908;10.850;2022-10-31T07:11:15;3.07;;;2.70;;
8171;SDS011;4127;47.908;10.850;2022-10-31T07:13:42;3.77;;;2.73;;
8171;SDS011;4127;47.908;10.850;2022-10-31T07:16:08;5.23;;;2.83;;
8171;SDS011;4127;47.908;10.850;2022-10-31T07:18:39;4.73;;;2.60;;
8171;SDS011;4127;47.908;10.850;2022-10-31T07:21:06;4.13;;;2.63;;
8171;SDS011;4127;47.908;10.850;2022-10-31T07:23:33;4.03;;;2.80;;
8171;SDS011;4127;47.908;10.850;2022-10-31T07:26:00;5.17;;;3.23;;
8171;SDS011;4127;47.908;10.850;2022-10-31T07:28:27;5.17;;;3.20;;
8171;SDS011;4127;47.908;10.850;2022-10-31T07:30:55;6.60;;;3.20;;
8171;SDS011;4127;47.908;10.850;2022-10-31T07:33:23;5.63;;;3.10;;
8171;SDS011;4127;47.908;10.850;2022-10-31T07:35:52;3.80;;;2.97;;
8171;SDS011;4127;47.908;10.850;2022-10-31T07:38:19;4.93;;;2.90;;
8171;SDS011;4127;47.908;10.850;2022-10-31T07:40:49;3.23;;;2.83;;
8171;SDS011;4127;47.908;10.850;2022-10-31T07:43:20;4.67;;;2.77;;
8171;SDS011;4127;47.908;10.850;2022-10-31T07:45:50;4.77;;;2.73;;
8171;SDS011;4127;47.908;10.850;2022-10-31T07:48:18;3.17;;;2.60;;
8171;SDS011;4127;47.908;10.850;2022-10-31T07:50:45;4.87;;;3.03;;
8171;SDS011;4127;47.908;10.850;2022-10-31T07:53:13;5.27;;;3.20;;
8171;SDS011;4127;47.908;10.850;2022-10-31T07:55:40;5.53;;;3.20;;
8171;SDS011;4127;47.908;10.850;2022-10-31T07:58:11;3.47;;;3.17;;
8171;SDS011;4127;47.908;10.850;2022-10-31T08:00:40;6.63;;;3.47;;
8171;SDS011;4127;47.908;10.850;2022-10-31T08:03:10;6.97;;;3.47;;
8171;SDS011;4127;47.908;10.850;2022-10-31T08:05:38;5.23;;;3.30;;
8171;SDS011;4127;47.908;10.850;2022-10-31T08:08:07;3.53;;;3.13;;
8171;SDS011;4127;47.908;10.850;2022-10-31T08:10:35;4.17;;;3.30;;
8171;SDS011;4127;47.908;10.850;2022-10-31T08:13:03;5.10;;;3.37;;
8171;SDS011;4127;47.908;10.850;2022-10-31T08:15:32;4.00;;;3.07;;
8171;SDS011;4127;47.908;10.850;2022-10-31T08:18:00;4.90;;;3.00;;
8171;SDS011;4127;47.908;10.850;2022-10-31T08:20:28;4.20;;;2.70;;
8171;SDS011;4127;47.908;10.850;2022-10-31T08:22:56;4.80;;;2.90;;
8171;SDS011;4127;47.908;10.850;2022-10-31T08:25:25;2.73;;;2.47;;
8171;SDS011;4127;47.908;10.850;2022-10-31T08:27:56;2.50;;;2.30;;
8171;SDS011;4127;47.908;10.850;2022-10-31T08:30:24;3.87;;;2.80;;
8171;SDS011;4127;47.908;10.850;2022-10-31T08:32:57;3.73;;;2.87;;
8171;SDS011;4127;47.908;10.850;2022-10-31T08:35:30;4.83;;;2.47;;
8171;SDS011;4127;47.908;10.850;2022-10-31T08:37:58;3.77;;;2.37;;
8171;SDS011;4127;47.908;10.850;2022-10-31T08:40:26;6.67;;;3.30;;
8171;SDS011;4127;47.908;10.850;2022-10-31T08:42:55;3.80;;;2.80;;
8171;SDS011;4127;47.908;10.850;2022-10-31T08:45:26;7.17;;;3.40;;
8171;SDS011;4127;47.908;10.850;2022-10-31T08:48:00;5.07;;;2.60;;
8171;SDS011;4127;47.908;10.850;2022-10-31T08:50:30;6.93;;;3.30;;
8171;SDS011;4127;47.908;10.850;2022-10-31T08:53:05;5.83;;;3.13;;
8171;SDS011;4127;47.908;10.850;2022-10-31T08:55:35;6.37;;;3.47;;
8171;SDS011;4127;47.908;10.850;2022-10-31T08:58:04;5.23;;;2.60;;
8171;SDS011;4127;47.908;10.850;2022-10-31T09:00:32;6.30;;;2.90;;
8171;SDS011;4127;47.908;10.850;2022-10-31T09:03:01;3.63;;;2.60;;
8171;SDS011;4127;47.908;10.850;2022-10-31T09:05:32;6.23;;;2.67;;
8171;SDS011;4127;47.908;10.850;2022-10-31T09:08:00;2.77;;;2.33;;
8171;SDS011;4127;47.908;10.850;2022-10-31T09:10:29;5.97;;;2.50;;
8171;SDS011;4127;47.908;10.850;2022-10-31T09:13:00;4.70;;;2.97;;
8171;SDS011;4127;47.908;10.850;2022-10-31T09:15:30;6.17;;;2.90;;
8171;SDS011;4127;47.908;10.850;2022-10-31T09:17:56;5.10;;;2.83;;
8171;SDS011;4127;47.908;10.850;2022-10-31T09:20:24;3.73;;;2.80;;
8171;SDS011;4127;47.908;10.850;2022-10-31T09:23:02;4.97;;;2.80;;
8171;SDS011;4127;47.908;10.850;2022-10-31T09:25:33;3.43;;;2.77;;
8171;SDS011;4127;47.908;10.850;2022-10-31T09:28:01;4.00;;;2.70;;
8171;SDS011;4127;47.908;10.850;2022-10-31T09:30:31;2.70;;;2.10;;
8171;SDS011;4127;47.908;10.850;2022-10-31T09:32:59;4.77;;;2.47;;
8171;SDS011;4127;47.908;10.850;2022-10-31T09:35:28;6.57;;;2.40;;
8171;SDS011;4127;47.908;10.850;2022-10-31T09:37:58;5.07;;;2.67;;
8171;SDS011;4127;47.908;10.850;2022-10-31T09:40:36;5.83;;;2.70;;
8171;SDS011;4127;47.908;10.850;2022-10-31T09:46:02;5.47;;;2.57;;
8171;SDS011;4127;47.908;10.850;2022-10-31T09:51:19;4.20;;;3.10;;
8171;SDS011;4127;47.908;10.850;2022-10-31T09:56:30;4.57;;;3.00;;
8171;SDS011;4127;47.908;10.850;2022-10-31T09:58:58;5.23;;;2.73;;
8171;SDS011;4127;47.908;10.850;2022-10-31T10:01:37;7.87;;;3.20;;
8171;SDS011;4127;47.908;10.850;2022-10-31T10:04:14;4.67;;;2.90;;
8171;SDS011;4127;47.908;10.850;2022-10-31T10:06:46;4.70;;;2.73;;
8171;SDS011;4127;47.908;10.850;2022-10-31T10:09:15;6.20;;;2.43;;
8171;SDS011;4127;47.908;10.850;2022-10-31T10:11:54;4.73;;;2.47;;
8171;SDS011;4127;47.908;10.850;2022-10-31T10:17:18;4.83;;;2.70;;
8171;SDS011;4127;47.908;10.850;2022-10-31T10:20:08;3.70;;;2.40;;
8171;SDS011;4127;47.908;10.850;2022-10-31T10:22:47;4.70;;;2.37;;
8171;SDS011;4127;47.908;10.850;2022-10-31T10:25:39;3.57;;;2.40;;
8171;SDS011;4127;47.908;10.850;2022-10-31T10:28:13;4.43;;;2.67;;
8171;SDS011;4127;47.908;10.850;2022-10-31T10:30:59;6.87;;;2.70;;
8171;SDS011;4127;47.908;10.850;2022-10-31T10:33:42;3.60;;;2.43;;
8171;SDS011;4127;47.908;10.850;2022-10-31T10:36:17;3.57;;;2.17;;
8171;SDS011;4127;47.908;10.850;2022-10-31T10:41:23;4.33;;;2.40;;
8171;SDS011;4127;47.908;10.850;2022-10-31T10:43:59;4.70;;;2.23;;
8171;SDS011;4127;47.908;10.850;2022-10-31T10:46:42;3.80;;;2.33;;
8171;SDS011;4127;47.908;10.850;2022-10-31T10:58:26;5.10;;;2.63;;
8171;SDS011;4127;47.908;10.850;2022-10-31T11:00:53;5.43;;;2.50;;
8171;SDS011;4127;47.908;10.850;2022-10-31T11:03:21;4.37;;;2.30;;
8171;SDS011;4127;47.908;10.850;2022-10-31T11:08:25;7.07;;;2.40;;
8171;SDS011;4127;47.908;10.850;2022-10-31T11:14:05;4.03;;;2.37;;
8171;SDS011;4127;47.908;10.850;2022-10-31T11:16:40;5.60;;;2.47;;
8171;SDS011;4127;47.908;10.850;2022-10-31T11:19:17;5.50;;;2.43;;
8171;SDS011;4127;47.908;10.850;2022-10-31T11:21:49;3.90;;;2.50;;
8171;SDS011;4127;47.908;10.850;2022-10-31T11:24:20;4.17;;;2.20;;
8171;SDS011;4127;47.908;10.850;2022-10-31T11:26:49;6.47;;;2.50;;
8171;SDS011;4127;47.908;10.850;2022-10-31T11:29:20;3.37;;;2.13;;
8171;SDS011;4127;47.908;10.850;2022-10-31T11:31:50;3.77;;;2.30;;
8171;SDS011;4127;47.908;10.850;2022-10-31T11:37:00;3.60;;;2.33;;
8171;SDS011;4127;47.908;10.850;2022-10-31T11:39:38;4.83;;;2.47;;
8171;SDS011;4127;47.908;10.850;2022-10-31T11:42:08;5.40;;;3.70;;
8171;SDS011;4127;47.908;10.850;2022-10-31T11:44:35;3.53;;;2.27;;
8171;SDS011;4127;47.908;10.850;2022-10-31T11:47:03;3.40;;;2.40;;
8171;SDS011;4127;47.908;10.850;2022-10-31T11:49:34;5.57;;;2.20;;
8171;SDS011;4127;47.908;10.850;2022-10-31T11:52:15;4.30;;;2.40;;
8171;SDS011;4127;47.908;10.850;2022-10-31T11:54:59;3.40;;;2.40;;
8171;SDS011;4127;47.908;10.850;2022-10-31T11:57:43;4.17;;;2.33;;
8171;SDS011;4127;47.908;10.850;2022-10-31T12:00:19;3.03;;;2.27;;
8171;SDS011;4127;47.908;10.850;2022-10-31T12:05:54;3.63;;;2.40;;
8171;SDS011;4127;47.908;10.850;2022-10-31T12:08:28;5.47;;;2.40;;
8171;SDS011;4127;47.908;10.850;2022-10-31T12:13:53;3.63;;;2.40;;
8171;SDS011;4127;47.908;10.850;2022-10-31T12:19:06;3.73;;;2.47;;
8171;SDS011;4127;47.908;10.850;2022-10-31T12:22:18;3.43;;;2.20;;
8171;SDS011;4127;47.908;10.850;2022-10-31T12:25:40;4.03;;;2.30;;
8171;SDS011;4127;47.908;10.850;2022-10-31T12:30:28;4.97;;;2.60;;
8171;SDS011;4127;47.908;10.850;2022-10-31T12:41:51;5.03;;;2.20;;
8171;SDS011;4127;47.908;10.850;2022-10-31T12:52:56;4.57;;;2.30;;
8171;SDS011;4127;47.908;10.850;2022-10-31T12:55:48;4.93;;;2.50;;
8171;SDS011;4127;47.908;10.850;2022-10-31T12:58:21;4.30;;;2.30;;
8171;SDS011;4127;47.908;10.850;2022-10-31T13:03:55;6.17;;;2.60;;
8171;SDS011;4127;47.908;10.850;2022-10-31T13:06:30;3.80;;;2.37;;
8171;SDS011;4127;47.908;10.850;2022-10-31T13:09:10;5.47;;;2.40;;
8171;SDS011;4127;47.908;10.850;2022-10-31T13:11:55;5.43;;;2.17;;
8171;SDS011;4127;47.908;10.850;2022-10-31T13:16:57;5.67;;;2.27;;
8171;SDS011;4127;47.908;10.850;2022-10-31T13:19:37;5.10;;;2.03;;
8171;SDS011;4127;47.908;10.850;2022-10-31T13:24:41;5.30;;;2.87;;
8171;SDS011;4127;47.908;10.850;2022-10-31T13:27:24;3.73;;;2.40;;
8171;SDS011;4127;47.908;10.850;2022-10-31T13:30:03;3.70;;;2.50;;
8171;SDS011;4127;47.908;10.850;2022-10-31T13:38:08;3.80;;;2.00;;
8171;SDS011;4127;47.908;10.850;2022-10-31T13:40:45;4.17;;;2.33;;
8171;SDS011;4127;47.908;10.850;2022-10-31T13:43:32;4.87;;;2.60;;
8171;SDS011;4127;47.908;10.850;2022-10-31T13:46:24;4.10;;;2.47;;
8171;SDS011;4127;47.908;10.850;2022-10-31T13:55:19;4.10;;;2.43;;
8171;SDS011;4127;47.908;10.850;2022-10-31T13:57:33;4.93;;;2.90;;
8171;SDS011;4127;47.908;10.850;2022-10-31T14:00:06;3.70;;;2.10;;
8171;SDS011;4127;47.908;10.850;2022-10-31T14:02:49;4.63;;;2.33;;
8171;SDS011;4127;47.908;10.850;2022-10-31T14:05:25;4.07;;;2.20;;
8171;SDS011;4127;47.908;10.850;2022-10-31T14:07:56;5.03;;;2.60;;
8171;SDS011;4127;47.908;10.850;2022-10-31T14:10:26;5.53;;;2.50;;
8171;SDS011;4127;47.908;10.850;2022-10-31T14:13:06;2.40;;;2.20;;
8171;SDS011;4127;47.908;10.850;2022-10-31T14:15:53;4.40;;;2.33;;
8171;SDS011;4127;47.908;10.850;2022-10-31T14:18:30;8.40;;;2.53;;
8171;SDS011;4127;47.908;10.850;2022-10-31T14:20:59;4.37;;;2.67;;
8171;SDS011;4127;47.908;10.850;2022-10-31T14:23:37;4.13;;;2.80;;
8171;SDS011;4127;47.908;10.850;2022-10-31T14:28:44;5.80;;;2.67;;
8171;SDS011;4127;47.908;10.850;2022-10-31T14:36:41;3.43;;;2.30;;
8171;SDS011;4127;47.908;10.850;2022-10-31T14:53:23;3.83;;;2.40;;
8171;SDS011;4127;47.908;10.850;2022-10-31T14:55:54;3.20;;;2.57;;
8171;SDS011;4127;47.908;10.850;2022-10-31T14:58:23;3.63;;;2.60;;
8171;SDS011;4127;47.908;10.850;2022-10-31T15:00:56;5.00;;;2.70;;
8171;SDS011;4127;47.908;10.850;2022-10-31T15:06:14;3.63;;;2.30;;
8171;SDS011;4127;47.908;10.850;2022-10-31T15:08:44;6.27;;;2.60;;
8171;SDS011;4127;47.908;10.850;2022-10-31T15:11:27;4.13;;;2.33;;
8171;SDS011;4127;47.908;10.850;2022-10-31T15:14:02;3.20;;;2.33;;
8171;SDS011;4127;47.908;10.850;2022-10-31T15:16:43;3.20;;;2.40;;
8171;SDS011;4127;47.908;10.850;2022-10-31T15:19:10;2.87;;;2.20;;
8171;SDS011;4127;47.908;10.850;2022-10-31T15:21:42;5.00;;;2.30;;
8171;SDS011;4127;47.908;10.850;2022-10-31T15:24:14;4.57;;;3.13;;
8171;SDS011;4127;47.908;10.850;2022-10-31T15:26:48;14.23;;;12.83;;
8171;SDS011;4127;47.908;10.850;2022-10-31T15:29:19;15.53;;;14.03;;
8171;SDS011;4127;47.908;10.850;2022-10-31T15:31:56;16.90;;;15.07;;
8171;SDS011;4127;47.908;10.850;2022-10-31T15:34:38;13.80;;;12.40;;
8171;SDS011;4127;47.908;10.850;2022-10-31T15:37:12;5.97;;;5.33;;
8171;SDS011;4127;47.908;10.850;2022-10-31T15:39:41;5.10;;;3.00;;
8171;SDS011;4127;47.908;10.850;2022-10-31T15:42:19;5.33;;;2.90;;
8171;SDS011;4127;47.908;10.850;2022-10-31T15:44:51;4.57;;;3.27;;
8171;SDS011;4127;47.908;10.850;2022-10-31T15:47:23;5.47;;;3.17;;
8171;SDS011;4127;47.908;10.850;2022-10-31T15:49:58;3.80;;;2.90;;
8171;SDS011;4127;47.908;10.850;2022-10-31T15:52:31;4.67;;;3.00;;
8171;SDS011;4127;47.908;10.850;2022-10-31T15:55:14;4.57;;;2.80;;
8171;SDS011;4127;47.908;10.850;2022-10-31T15:57:48;3.67;;;2.80;;
8171;SDS011;4127;47.908;10.850;2022-10-31T16:02:47;4.60;;;2.63;;
8171;SDS011;4127;47.908;10.850;2022-10-31T16:05:15;4.87;;;3.10;;
8171;SDS011;4127;47.908;10.850;2022-10-31T16:07:50;4.70;;;3.30;;
8171;SDS011;4127;47.908;10.850;2022-10-31T16:10:22;3.80;;;2.70;;
8171;SDS011;4127;47.908;10.850;2022-10-31T16:12:51;3.30;;;2.60;;
8171;SDS011;4127;47.908;10.850;2022-10-31T16:15:19;5.47;;;2.90;;
8171;SDS011;4127;47.908;10.850;2022-10-31T16:17:48;5.07;;;2.60;;
8171;SDS011;4127;47.908;10.850;2022-10-31T16:20:22;5.67;;;3.20;;
8171;SDS011;4127;47.908;10.850;2022-10-31T16:22:54;4.40;;;2.77;;
8171;SDS011;4127;47.908;10.850;2022-10-31T16:25:25;8.67;;;3.73;;
8171;SDS011;4127;47.908;10.850;2022-10-31T16:27:57;4.40;;;2.57;;
8171;SDS011;4127;47.908;10.850;2022-10-31T16:30:41;3.10;;;2.70;;
8171;SDS011;4127;47.908;10.850;2022-10-31T16:33:30;5.83;;;3.53;;
8171;SDS011;4127;47.908;10.850;2022-10-31T16:39:02;4.43;;;3.00;;
8171;SDS011;4127;47.908;10.850;2022-10-31T16:41:29;5.07;;;2.70;;
8171;SDS011;4127;47.908;10.850;2022-10-31T16:43:59;4.53;;;3.03;;
8171;SDS011;4127;47.908;10.850;2022-10-31T16:46:40;4.93;;;2.80;;
8171;SDS011;4127;47.908;10.850;2022-10-31T16:49:08;4.90;;;3.17;;
8171;SDS011;4127;47.908;10.850;2022-10-31T16:51:35;6.27;;;3.33;;
8171;SDS011;4127;47.908;10.850;2022-10-31T16:54:02;5.73;;;3.20;;
8171;SDS011;4127;47.908;10.850;2022-10-31T16:56:32;3.70;;;2.90;;
8171;SDS011;4127;47.908;10.850;2022-10-31T16:59:02;5.73;;;4.00;;
8171;SDS011;4127;47.908;10.850;2022-10-31T17:01:37;3.80;;;2.80;;
8171;SDS011;4127;47.908;10.850;2022-10-31T17:04:07;5.87;;;3.77;;
8171;SDS011;4127;47.908;10.850;2022-10-31T17:06:38;5.23;;;3.30;;
8171;SDS011;4127;47.908;10.850;2022-10-31T17:09:04;6.70;;;4.00;;
8171;SDS011;4127;47.908;10.850;2022-10-31T17:11:31;4.07;;;3.20;;
8171;SDS011;4127;47.908;10.850;2022-10-31T17:13:59;6.47;;;3.97;;
8171;SDS011;4127;47.908;10.850;2022-10-31T17:16:26;4.03;;;3.00;;
8171;SDS011;4127;47.908;10.850;2022-10-31T17:18:53;7.37;;;4.20;;
8171;SDS011;4127;47.908;10.850;2022-10-31T17:21:21;6.27;;;3.60;;
8171;SDS011;4127;47.908;10.850;2022-10-31T17:23:49;5.87;;;3.43;;
8171;SDS011;4127;47.908;10.850;2022-10-31T17:26:16;4.27;;;3.83;;
8171;SDS011;4127;47.908;10.850;2022-10-31T17:28:44;4.60;;;3.30;;
8171;SDS011;4127;47.908;10.850;2022-10-31T17:31:19;4.77;;;3.40;;
8171;SDS011;4127;47.908;10.850;2022-10-31T17:33:57;5.50;;;3.57;;
8171;SDS011;4127;47.908;10.850;2022-10-31T17:36:28;4.20;;;3.47;;
8171;SDS011;4127;47.908;10.850;2022-10-31T17:38:59;5.90;;;3.70;;